Time;durP1;ratioP1;P1;durP2;ratioP2;P2;SDS_P1;SDS_P2;PMS_P1;PMS_P2;Temp;Humidity;BMP_temperature;BMP_pressure;BME280_temperature;BME280_humidity;BME280_pressure;Samples;Min_cycle;Max_cycle;Signal;HPM_P1;HPM_P2
2021/05/09 00:01:28;;;;;;;6.32;5.38;;;;;;;15.71;64.51;100849.03;5004321;28;20048;-73
2021/05/09 00:04:06;;;;;;;9.43;4.93;;;;;;;15.69;64.59;100845.63;5006009;28;20059;-75
2021/05/09 00:06:38;;;;;;;9.93;5.90;;;;;;;15.57;65.01;100850.78;4995063;28;20042;-72
2021/05/09 00:09:13;;;;;;;10.18;5.35;;;;;;;15.59;64.88;100855.00;4997425;28;20125;-73
2021/05/09 00:11:42;;;;;;;10.27;6.40;;;;;;;15.60;64.81;100848.78;5010272;28;20046;-74
2021/05/09 00:14:41;;;;;;;11.07;5.65;;;;;;;15.54;64.98;100849.16;5010968;28;20037;-73
2021/05/09 00:17:38;;;;;;;15.25;6.10;;;;;;;15.45;65.37;100849.75;4996857;28;20434;-73
2021/05/09 00:20:07;;;;;;;9.95;6.13;;;;;;;15.44;65.35;100846.25;5009040;28;20049;-73
2021/05/09 00:22:34;;;;;;;9.57;5.68;;;;;;;15.48;65.23;100846.94;5003702;28;20038;-74
2021/05/09 00:25:00;;;;;;;12.40;5.45;;;;;;;15.43;65.50;100849.81;5003441;28;20168;-74
2021/05/09 00:27:27;;;;;;;9.38;5.25;;;;;;;15.29;65.86;100846.38;4996867;28;20064;-77
2021/05/09 00:29:53;;;;;;;10.45;5.63;;;;;;;15.28;65.75;100844.66;5000996;28;20081;-77
2021/05/09 00:32:20;;;;;;;7.85;5.20;;;;;;;15.21;65.93;100838.94;4997774;28;20042;-76
2021/05/09 00:34:47;;;;;;;10.23;5.82;;;;;;;15.14;66.45;100833.22;5010692;28;20045;-78
2021/05/09 00:37:14;;;;;;;7.38;5.85;;;;;;;15.27;66.07;100838.56;5009060;28;20080;-76
2021/05/09 00:39:41;;;;;;;10.35;6.35;;;;;;;15.20;66.53;100829.38;5007318;28;20147;-76
2021/05/09 00:42:08;;;;;;;8.65;5.45;;;;;;;15.25;66.01;100836.97;5002039;28;20042;-77
2021/05/09 00:44:34;;;;;;;8.63;6.32;;;;;;;15.24;66.08;100837.91;5013747;28;20563;-78
2021/05/09 00:47:08;;;;;;;7.13;5.45;;;;;;;15.36;65.65;100829.28;5006075;28;20041;-79
2021/05/09 00:49:39;;;;;;;10.18;6.70;;;;;;;15.34;65.88;100828.50;5000721;28;20062;-77
2021/05/09 00:52:08;;;;;;;12.13;6.63;;;;;;;15.20;66.31;100826.75;5007409;28;20033;-78
2021/05/09 00:54:37;;;;;;;11.40;6.07;;;;;;;15.30;65.85;100825.25;5002510;28;20416;-78
2021/05/09 00:57:05;;;;;;;9.15;6.50;;;;;;;15.34;65.91;100828.50;4996437;28;20048;-78
2021/05/09 00:59:35;;;;;;;14.02;6.78;;;;;;;15.37;65.92;100825.72;4997267;28;20555;-78
2021/05/09 01:02:01;;;;;;;9.40;5.95;;;;;;;15.34;66.36;100826.75;5000576;28;20050;-79
2021/05/09 01:04:28;;;;;;;9.68;6.45;;;;;;;15.30;66.62;100822.63;4983912;28;20412;-78
2021/05/09 01:06:54;;;;;;;9.77;6.65;;;;;;;15.18;66.86;100816.34;4992353;28;20056;-78
2021/05/09 01:09:21;;;;;;;8.75;7.57;;;;;;;15.25;66.60;100818.59;4999328;28;20057;-78
2021/05/09 01:11:49;;;;;;;8.52;7.10;;;;;;;15.24;66.59;100825.63;5009261;28;20084;-75
2021/05/09 01:14:15;;;;;;;9.35;7.22;;;;;;;15.15;66.65;100816.50;5000101;28;20046;-75
2021/05/09 01:16:43;;;;;;;11.18;6.75;;;;;;;15.22;66.43;100821.38;4985397;28;20060;-75
2021/05/09 01:19:10;;;;;;;10.68;7.25;;;;;;;15.15;67.06;100827.00;4992269;28;20048;-75
2021/05/09 01:21:37;;;;;;;12.80;7.80;;;;;;;15.02;67.49;100828.69;5000672;28;20042;-81
2021/05/09 01:24:04;;;;;;;11.23;8.60;;;;;;;15.10;67.19;100831.69;5010954;28;20038;-80
2021/05/09 01:26:31;;;;;;;13.27;7.60;;;;;;;15.13;67.37;100826.28;5001553;28;20485;-80
2021/05/09 01:29:01;;;;;;;13.15;7.40;;;;;;;14.94;67.72;100823.03;5005244;28;20052;-80
2021/05/09 01:31:27;;;;;;;7.20;6.53;;;;;;;15.02;67.43;100823.44;5009915;28;20038;-79
2021/05/09 01:33:58;;;;;;;11.10;7.13;;;;;;;15.02;67.07;100818.19;5004722;28;20441;-79
2021/05/09 01:36:24;;;;;;;10.05;6.43;;;;;;;15.05;66.79;100819.78;5013001;28;20034;-79
2021/05/09 01:38:56;;;;;;;14.05;7.55;;;;;;;15.09;66.72;100824.75;5007626;28;20124;-79
2021/05/09 01:41:23;;;;;;;11.85;7.20;;;;;;;15.10;66.44;100821.19;5004735;28;20038;-76
2021/05/09 01:43:50;;;;;;;7.85;6.35;;;;;;;14.97;66.72;100822.00;5018675;28;20050;-76
2021/05/09 01:46:16;;;;;;;12.57;7.88;;;;;;;14.92;66.48;100824.91;4999926;28;20042;-76
2021/05/09 01:48:43;;;;;;;10.55;7.07;;;;;;;14.92;66.77;100817.88;4995778;28;20128;-76
2021/05/09 01:51:10;;;;;;;9.50;7.38;;;;;;;14.82;67.13;100816.72;4993542;28;20741;-76
2021/05/09 01:53:36;;;;;;;9.95;7.43;;;;;;;14.90;66.92;100813.63;5011960;28;20125;-76
2021/05/09 01:56:03;;;;;;;15.30;8.52;;;;;;;14.75;67.42;100810.13;4995421;28;20041;-76
2021/05/09 01:58:34;;;;;;;11.30;6.85;;;;;;;14.61;68.00;100810.09;5003354;28;20046;-77
2021/05/09 02:01:12;;;;;;;11.18;8.23;;;;;;;14.73;67.64;100805.91;4994366;28;20045;-77
2021/05/09 02:03:52;;;;;;;11.77;6.60;;;;;;;14.72;67.51;100801.59;5003622;28;20045;-77
2021/05/09 02:06:18;;;;;;;8.95;6.88;;;;;;;14.78;66.99;100803.88;5004537;28;20065;-78
2021/05/09 02:08:45;;;;;;;7.90;6.95;;;;;;;14.84;66.68;100795.63;5011696;28;20382;-78
2021/05/09 02:11:22;;;;;;;7.13;6.30;;;;;;;14.80;67.11;100792.34;5012259;28;20400;-75
2021/05/09 02:13:52;;;;;;;9.52;6.30;;;;;;;14.85;67.08;100797.31;4996871;28;20042;-79
2021/05/09 02:16:25;;;;;;;10.05;7.57;;;;;;;14.86;66.91;100796.38;4998289;28;20494;-76
2021/05/09 02:18:51;;;;;;;12.00;7.80;;;;;;;14.83;66.87;100797.41;5004400;28;20490;-76
2021/05/09 02:21:21;;;;;;;12.48;6.85;;;;;;;14.62;67.61;100804.75;4991164;28;20045;-77
2021/05/09 02:23:49;;;;;;;10.02;7.07;;;;;;;14.62;67.79;100802.13;5018364;28;20050;-76
2021/05/09 02:26:17;;;;;;;12.35;8.32;;;;;;;14.65;67.99;100801.13;4998641;28;20092;-75
2021/05/09 02:28:44;;;;;;;9.68;7.80;;;;;;;14.70;67.55;100806.09;5001055;28;20493;-75
2021/05/09 02:31:11;;;;;;;8.15;7.35;;;;;;;14.71;67.36;100811.25;5015885;28;20050;-76
2021/05/09 02:33:37;;;;;;;13.18;7.47;;;;;;;14.32;68.32;100802.06;4996316;28;20053;-75
2021/05/09 02:36:05;;;;;;;9.95;7.55;;;;;;;14.15;68.59;100805.66;5020655;28;20042;-75
2021/05/09 02:38:31;;;;;;;7.13;6.40;;;;;;;14.14;68.80;100801.34;5020780;28;20069;-75
2021/05/09 02:40:58;;;;;;;12.77;8.63;;;;;;;14.16;68.67;100803.88;5024319;28;20046;-76
2021/05/09 02:43:25;;;;;;;12.30;8.05;;;;;;;14.06;68.46;100806.19;5013304;28;20409;-76
2021/05/09 02:45:52;;;;;;;10.52;7.95;;;;;;;14.13;67.90;100811.94;5003269;28;20041;-75
2021/05/09 02:48:18;;;;;;;12.05;8.00;;;;;;;14.21;67.74;100807.09;5017017;28;20474;-76
2021/05/09 02:50:46;;;;;;;11.10;7.28;;;;;;;14.20;67.64;100807.19;4998171;28;20054;-76
2021/05/09 02:53:13;;;;;;;10.40;7.38;;;;;;;14.01;68.24;100818.69;5015182;28;20046;-75
2021/05/09 02:55:40;;;;;;;11.73;8.32;;;;;;;14.07;68.34;100809.66;5021287;28;20045;-75
2021/05/09 02:58:06;;;;;;;11.77;8.45;;;;;;;14.21;68.03;100808.84;5024555;28;20049;-75
2021/05/09 03:00:34;;;;;;;13.95;9.13;;;;;;;14.24;68.00;100806.09;4999665;28;20042;-76
2021/05/09 03:03:12;;;;;;;10.93;7.95;;;;;;;14.32;67.67;100811.72;5000552;28;20050;-75
2021/05/09 03:05:39;;;;;;;12.38;9.18;;;;;;;14.38;67.64;100811.38;4999421;28;21013;-75
2021/05/09 03:08:05;;;;;;;14.70;7.88;;;;;;;14.34;68.10;100810.72;5012746;28;20069;-76
2021/05/09 03:10:33;;;;;;;10.60;7.47;;;;;;;14.29;68.00;100809.28;4998048;28;20073;-76
2021/05/09 03:13:00;;;;;;;9.05;7.90;;;;;;;14.11;68.67;100813.75;5015451;28;20140;-76
2021/05/09 03:15:28;;;;;;;10.05;8.07;;;;;;;13.91;69.15;100817.50;5003042;28;20042;-76
2021/05/09 03:17:55;;;;;;;14.57;10.82;;;;;;;13.82;69.36;100812.75;5021552;28;20073;-76
2021/05/09 03:20:21;;;;;;;13.65;8.27;;;;;;;13.73;69.50;100815.88;5022353;28;20042;-76
2021/05/09 03:22:48;;;;;;;15.25;9.48;;;;;;;14.00;68.58;100813.53;5017942;28;20054;-76
2021/05/09 03:25:14;;;;;;;20.17;10.63;;;;;;;13.97;68.06;100814.53;5019242;28;20037;-76
2021/05/09 03:27:40;;;;;;;11.70;9.38;;;;;;;13.78;69.09;100816.47;5015461;28;20062;-75
2021/05/09 03:30:07;;;;;;;14.35;10.98;;;;;;;13.81;68.86;100816.31;5014825;28;20038;-76
2021/05/09 03:32:34;;;;;;;11.73;10.27;;;;;;;13.92;68.46;100826.22;5013716;28;20070;-75
2021/05/09 03:35:02;;;;;;;13.50;11.63;;;;;;;13.79;68.83;100823.41;5021793;28;20058;-76
2021/05/09 03:37:28;;;;;;;12.57;10.50;;;;;;;13.89;68.89;100819.34;5015658;28;20034;-76
2021/05/09 03:39:55;;;;;;;11.93;10.45;;;;;;;13.97;68.31;100811.94;5010893;28;20049;-76
2021/05/09 03:42:21;;;;;;;15.73;11.30;;;;;;;14.02;67.84;100819.53;5010969;28;20088;-76
2021/05/09 03:44:48;;;;;;;17.35;12.32;;;;;;;14.00;68.17;100821.38;5007533;28;20046;-76
2021/05/09 03:47:14;;;;;;;14.45;11.70;;;;;;;14.00;67.92;100832.72;5011414;28;20116;-76
2021/05/09 03:49:42;;;;;;;15.02;12.10;;;;;;;13.99;68.00;100824.94;5005926;28;20050;-75
2021/05/09 03:52:08;;;;;;;13.43;10.93;;;;;;;14.02;67.68;100820.38;5006941;28;20038;-75
2021/05/09 03:54:34;;;;;;;12.40;11.10;;;;;;;14.16;66.70;100823.06;5003162;28;20057;-75
2021/05/09 03:57:01;;;;;;;13.50;10.38;;;;;;;13.97;67.38;100825.03;5012411;28;20112;-75
2021/05/09 03:59:27;;;;;;;14.15;12.70;;;;;;;14.09;67.02;100826.97;5003253;28;20112;-75
2021/05/09 04:01:53;;;;;;;16.98;11.45;;;;;;;13.97;67.63;100827.66;5002296;28;20046;-75
2021/05/09 04:04:20;;;;;;;12.73;10.52;;;;;;;13.85;67.90;100829.19;5004434;28;20068;-75
2021/05/09 04:06:46;;;;;;;12.77;11.48;;;;;;;13.94;67.70;100821.72;4985770;28;20563;-76
2021/05/09 04:09:12;;;;;;;12.57;10.07;;;;;;;13.93;67.48;100825.28;5011561;28;20512;-75
2021/05/09 04:11:39;;;;;;;14.05;9.77;;;;;;;13.87;68.16;100827.31;5004393;28;20092;-75
2021/05/09 04:14:05;;;;;;;15.15;10.52;;;;;;;13.86;68.02;100828.25;5008758;28;20573;-76
2021/05/09 04:16:32;;;;;;;10.68;9.57;;;;;;;13.77;68.40;100820.03;4998831;28;20038;-75
2021/05/09 04:18:58;;;;;;;10.20;9.20;;;;;;;13.87;68.39;100822.06;4999985;28;20421;-75
2021/05/09 04:21:24;;;;;;;11.75;10.45;;;;;;;14.07;67.65;100823.59;5001933;28;20065;-75
2021/05/09 04:23:51;;;;;;;14.90;11.73;;;;;;;13.95;68.20;100829.50;5010240;28;20061;-75
2021/05/09 04:26:17;;;;;;;17.13;12.02;;;;;;;14.11;67.77;100829.50;5010022;28;20109;-76
2021/05/09 04:28:44;;;;;;;20.60;11.73;;;;;;;14.08;68.31;100835.78;5010322;28;20034;-76
2021/05/09 04:31:10;;;;;;;11.73;9.93;;;;;;;14.01;68.50;100834.44;5006192;28;20052;-75
2021/05/09 04:33:37;;;;;;;16.92;10.35;;;;;;;14.04;68.67;100833.41;5006253;28;20484;-75
2021/05/09 04:36:04;;;;;;;14.20;10.02;;;;;;;14.14;68.24;100830.19;5006058;28;20030;-75
2021/05/09 04:38:31;;;;;;;14.40;11.98;;;;;;;14.06;68.98;100836.78;5002638;28;20456;-75
2021/05/09 04:40:57;;;;;;;15.07;10.32;;;;;;;14.15;68.69;100841.50;5010158;28;20075;-75
2021/05/09 04:43:24;;;;;;;15.35;11.40;;;;;;;14.17;68.84;100837.06;5003276;28;20120;-75
2021/05/09 04:45:55;;;;;;;14.10;12.15;;;;;;;14.26;68.57;100838.28;5005501;28;20052;-75
2021/05/09 04:48:22;;;;;;;13.20;10.25;;;;;;;14.44;67.98;100833.81;5011365;28;20042;-75
2021/05/09 04:50:50;;;;;;;12.20;9.85;;;;;;;14.49;67.80;100835.28;5010471;28;20038;-75
2021/05/09 04:53:26;;;;;;;11.98;10.48;;;;;;;14.80;66.88;100838.72;5001773;28;20034;-75
2021/05/09 04:55:54;;;;;;;18.65;10.60;;;;;;;14.88;66.86;100839.16;5014993;28;20116;-76
2021/05/09 04:58:21;;;;;;;16.65;10.57;;;;;;;15.05;66.50;100844.25;5007990;28;20042;-76
2021/05/09 05:00:55;;;;;;;18.80;12.60;;;;;;;15.29;66.13;100838.50;5010519;28;20128;-75
2021/05/09 05:03:22;;;;;;;14.30;9.80;;;;;;;15.52;65.46;100843.19;5009190;28;20046;-76
2021/05/09 05:05:48;;;;;;;15.70;11.18;;;;;;;15.72;64.50;100844.63;5009747;28;20065;-76
2021/05/09 05:08:15;;;;;;;10.95;9.85;;;;;;;15.95;63.98;100843.19;5005941;28;20039;-75
2021/05/09 05:10:42;;;;;;;17.42;10.77;;;;;;;16.15;63.24;100842.75;4986548;28;20124;-76
2021/05/09 05:13:19;;;;;;;15.02;11.40;;;;;;;16.39;62.68;100842.97;5010009;28;20133;-75
2021/05/09 05:15:47;;;;;;;15.52;11.30;;;;;;;16.69;61.53;100840.13;5006733;28;20462;-76
2021/05/09 05:18:14;;;;;;;17.65;11.85;;;;;;;16.97;60.85;100840.94;5009748;28;20069;-76
2021/05/09 05:20:41;;;;;;;12.07;10.30;;;;;;;17.18;60.16;100836.84;5010007;28;20046;-76
2021/05/09 05:23:09;;;;;;;15.68;10.15;;;;;;;17.43;59.36;100840.47;4999759;28;20033;-76
2021/05/09 05:25:35;;;;;;;11.50;10.40;;;;;;;16.89;60.20;100841.47;5008249;28;20065;-76
2021/05/09 05:28:02;;;;;;;11.35;10.20;;;;;;;17.13;59.20;100841.59;5011984;28;20125;-76
2021/05/09 05:30:29;;;;;;;11.63;10.07;;;;;;;17.12;60.76;100837.28;5011428;28;20128;-76
2021/05/09 05:33:06;;;;;;;12.38;10.63;;;;;;;16.84;60.91;100850.63;5007017;28;20092;-76
2021/05/09 05:35:34;;;;;;;12.50;10.68;;;;;;;16.88;60.29;100849.44;5012988;28;20045;-77
2021/05/09 05:38:00;;;;;;;20.27;10.77;;;;;;;16.85;61.17;100850.50;5017172;28;20045;-75
2021/05/09 05:40:27;;;;;;;10.85;9.75;;;;;;;16.74;61.39;100848.59;5007383;28;20038;-76
2021/05/09 05:42:54;;;;;;;11.70;10.40;;;;;;;16.89;61.44;100853.81;5013583;28;20041;-77
2021/05/09 05:45:21;;;;;;;10.75;9.70;;;;;;;17.17;60.70;100850.16;5009695;28;20039;-76
2021/05/09 05:47:47;;;;;;;15.25;9.60;;;;;;;17.91;58.88;100848.53;5004240;28;20050;-76
2021/05/09 05:50:14;;;;;;;14.20;10.20;;;;;;;18.10;57.33;100846.25;5008096;28;20538;-76
2021/05/09 05:52:40;;;;;;;23.52;9.82;;;;;;;18.42;56.24;100848.34;5011563;28;20046;-77
2021/05/09 05:55:07;;;;;;;18.13;11.02;;;;;;;17.99;57.54;100856.75;5009103;28;20504;-77
2021/05/09 05:57:33;;;;;;;10.88;9.80;;;;;;;17.84;56.88;100858.66;5015650;28;20041;-76
2021/05/09 06:00:00;;;;;;;14.30;10.63;;;;;;;18.61;54.85;100851.34;4996629;28;20042;-76
2021/05/09 06:02:26;;;;;;;13.60;11.02;;;;;;;18.47;55.71;100854.16;5007362;28;20089;-76
2021/05/09 06:04:54;;;;;;;13.68;10.77;;;;;;;19.41;52.37;100863.84;4986349;28;20108;-76
2021/05/09 06:07:22;;;;;;;13.68;9.35;;;;;;;19.98;50.88;100853.19;4999889;28;20035;-73
2021/05/09 06:09:48;;;;;;;13.70;10.60;;;;;;;19.65;52.40;100855.81;5012430;28;20046;-76
2021/05/09 06:12:15;;;;;;;12.60;11.30;;;;;;;20.25;51.05;100865.16;5015485;28;20113;-74
2021/05/09 06:14:41;;;;;;;14.57;12.13;;;;;;;20.38;50.66;100866.69;5015450;28;20393;-78
2021/05/09 06:17:07;;;;;;;14.15;11.80;;;;;;;20.49;50.44;100857.88;5013446;28;20101;-78
2021/05/09 06:19:34;;;;;;;14.43;12.90;;;;;;;20.54;49.59;100865.47;5014674;28;20050;-79
2021/05/09 06:22:00;;;;;;;14.73;10.23;;;;;;;20.66;50.21;100869.75;5014645;28;20069;-76
2021/05/09 06:24:26;;;;;;;16.05;11.32;;;;;;;20.47;50.82;100866.94;5015068;28;20092;-74
2021/05/09 06:26:53;;;;;;;11.98;9.40;;;;;;;20.24;50.57;100869.63;5014389;28;20045;-79
2021/05/09 06:29:19;;;;;;;16.00;9.20;;;;;;;20.11;51.16;100869.75;5013675;28;20046;-74
2021/05/09 06:31:45;;;;;;;11.55;9.02;;;;;;;20.57;51.59;100867.88;5015372;28;20046;-75
2021/05/09 06:34:12;;;;;;;9.95;8.43;;;;;;;20.02;51.93;100869.63;5014829;28;20564;-78
2021/05/09 06:36:39;;;;;;;12.32;7.65;;;;;;;20.35;51.32;100872.25;5014087;28;20038;-75
2021/05/09 06:39:06;;;;;;;11.35;7.10;;;;;;;21.73;47.75;100871.28;5013653;28;20094;-73
2021/05/09 06:41:34;;;;;;;9.20;7.35;;;;;;;22.23;46.52;100869.53;4995131;28;20050;-74
2021/05/09 06:44:05;;;;;;;9.05;7.05;;;;;;;22.85;45.47;100869.28;5014426;28;20469;-73
2021/05/09 06:46:32;;;;;;;11.55;7.38;;;;;;;22.90;44.59;100873.22;5014042;28;20042;-73
2021/05/09 06:49:01;;;;;;;7.95;6.18;;;;;;;23.13;44.06;100872.94;5013444;28;20053;-74
2021/05/09 06:51:27;;;;;;;11.07;8.60;;;;;;;23.29;43.22;100867.03;5010942;28;20433;-74
2021/05/09 06:53:55;;;;;;;10.32;7.85;;;;;;;22.37;45.17;100876.28;5014236;28;20052;-72
2021/05/09 06:56:21;;;;;;;9.10;7.38;;;;;;;22.00;45.72;100862.75;5013574;28;20520;-72
2021/05/09 06:58:48;;;;;;;9.77;6.93;;;;;;;23.10;43.84;100865.25;5011483;28;20104;-74
2021/05/09 07:01:14;;;;;;;8.93;7.20;;;;;;;23.82;41.98;100869.97;5013387;28;20049;-72
2021/05/09 07:03:41;;;;;;;8.60;7.68;;;;;;;23.68;41.39;100873.94;5013371;28;20042;-72
2021/05/09 07:06:07;;;;;;;11.20;8.07;;;;;;;23.79;41.94;100872.91;5013591;28;20124;-72
2021/05/09 07:08:34;;;;;;;11.00;9.65;;;;;;;23.23;42.45;100879.09;5013249;28;20508;-72
2021/05/09 07:11:02;;;;;;;13.35;9.85;;;;;;;23.60;42.52;100880.94;5013894;28;20079;-72
2021/05/09 07:13:28;;;;;;;11.35;8.23;;;;;;;24.47;40.35;100870.72;5012546;28;20042;-71
2021/05/09 07:15:56;;;;;;;11.68;8.75;;;;;;;24.45;39.45;100878.03;5013295;28;20520;-72
2021/05/09 07:18:24;;;;;;;10.80;9.70;;;;;;;24.19;40.46;100879.72;5013196;28;20061;-72
2021/05/09 07:20:56;;;;;;;11.02;9.80;;;;;;;24.27;40.64;100877.97;5014122;28;20045;-72
2021/05/09 07:23:24;;;;;;;10.52;8.77;;;;;;;24.21;40.27;100877.72;5012872;28;20392;-70
2021/05/09 07:25:51;;;;;;;10.75;8.52;;;;;;;25.17;39.14;100875.34;5013758;28;20046;-74
2021/05/09 07:28:19;;;;;;;12.98;8.10;;;;;;;25.36;38.67;100867.13;5012434;28;20400;-80
2021/05/09 07:30:46;;;;;;;13.10;9.85;;;;;;;25.57;38.39;100864.91;4997112;28;20089;-77
2021/05/09 07:33:13;;;;;;;12.88;10.10;;;;;;;25.76;37.64;100866.53;5010204;28;20042;-75
2021/05/09 07:35:41;;;;;;;10.23;9.18;;;;;;;25.99;37.70;100871.28;5013723;28;20524;-77
2021/05/09 07:38:10;;;;;;;15.95;11.70;;;;;;;26.00;36.36;100876.50;5012859;28;20073;-75
2021/05/09 07:40:37;;;;;;;14.60;10.10;;;;;;;26.00;37.42;100876.50;5013336;28;20034;-73
2021/05/09 07:43:13;;;;;;;10.00;9.15;;;;;;;26.03;37.07;100867.28;5013294;28;20404;-76
2021/05/09 07:45:41;;;;;;;13.57;11.57;;;;;;;25.73;36.82;100866.00;5012694;28;20034;-74
2021/05/09 07:48:10;;;;;;;13.00;9.20;;;;;;;26.71;36.19;100864.47;5012951;28;20559;-73
2021/05/09 07:50:38;;;;;;;14.77;10.77;;;;;;;26.60;36.26;100867.47;5012843;28;20405;-76
2021/05/09 07:53:05;;;;;;;14.65;11.75;;;;;;;25.93;36.79;100872.75;5013340;28;20038;-80
2021/05/09 07:55:31;;;;;;;19.23;15.43;;;;;;;24.93;39.02;100867.94;5015171;28;20042;-76
2021/05/09 07:57:58;;;;;;;17.25;13.13;;;;;;;25.38;38.22;100856.28;4998260;28;20042;-73
2021/05/09 08:00:25;;;;;;;14.32;11.55;;;;;;;26.61;36.50;100853.09;5012185;28;20046;-72
2021/05/09 08:02:52;;;;;;;15.27;12.07;;;;;;;27.01;35.85;100859.44;5013328;28;20069;-72
2021/05/09 08:05:21;;;;;;;18.92;12.30;;;;;;;26.52;36.66;100854.91;5012624;28;20401;-76
2021/05/09 08:07:52;;;;;;;12.75;10.93;;;;;;;27.90;34.51;100850.38;5012492;28;20034;-76
2021/05/09 08:10:20;;;;;;;16.00;12.60;;;;;;;27.71;34.61;100858.84;5012465;28;20048;-76
2021/05/09 08:12:47;;;;;;;17.23;14.18;;;;;;;27.01;35.74;100856.78;5012953;28;20066;-76
2021/05/09 08:15:14;;;;;;;16.15;11.90;;;;;;;26.83;36.85;100852.41;5007140;28;20377;-74
2021/05/09 08:17:41;;;;;;;12.95;11.75;;;;;;;27.91;34.85;100847.53;5008790;28;20563;-74
2021/05/09 08:20:08;;;;;;;13.48;12.20;;;;;;;27.42;34.89;100850.34;5012446;28;20061;-74
2021/05/09 08:22:35;;;;;;;12.98;10.73;;;;;;;26.67;36.93;100847.06;5012129;28;20100;-74
2021/05/09 08:25:03;;;;;;;14.77;12.50;;;;;;;27.54;35.11;100844.63;5012465;28;20062;-73
2021/05/09 08:27:32;;;;;;;15.90;12.95;;;;;;;28.06;34.79;100850.28;5011989;28;20940;-74
2021/05/09 08:30:00;;;;;;;14.48;11.70;;;;;;;26.63;36.64;100851.94;5012646;28;20496;-72
2021/05/09 08:32:27;;;;;;;12.27;11.18;;;;;;;26.86;36.20;100848.59;5012520;28;20080;-79
2021/05/09 08:34:56;;;;;;;16.80;11.60;;;;;;;26.54;36.97;100847.56;5012354;28;20500;-74
2021/05/09 08:37:23;;;;;;;16.80;11.52;;;;;;;26.40;37.30;100850.84;5011567;28;20449;-74
2021/05/09 08:39:50;;;;;;;9.70;8.55;;;;;;;27.29;36.15;100838.53;5012492;28;20505;-74
2021/05/09 08:42:18;;;;;;;16.15;8.50;;;;;;;26.18;37.61;100843.47;4995276;28;20548;-74
2021/05/09 08:44:49;;;;;;;13.70;10.13;;;;;;;25.83;38.85;100842.69;5011909;28;20125;-73
2021/05/09 08:47:21;;;;;;;10.77;8.13;;;;;;;26.11;38.61;100836.09;5012343;28;20464;-74
2021/05/09 08:49:51;;;;;;;13.43;8.65;;;;;;;25.71;39.25;100825.25;5011182;28;20054;-76
2021/05/09 08:52:19;;;;;;;8.52;6.95;;;;;;;25.76;38.89;100836.31;5012632;28;20042;-76
2021/05/09 08:54:48;;;;;;;10.52;5.30;;;;;;;25.45;39.32;100844.81;5011173;28;20049;-73
2021/05/09 08:57:15;;;;;;;11.32;6.10;;;;;;;25.08;39.84;100843.25;5012294;28;20069;-73
2021/05/09 08:59:41;;;;;;;8.07;5.32;;;;;;;25.50;39.54;100842.50;5012074;28;20046;-74
2021/05/09 09:02:08;;;;;;;11.30;5.65;;;;;;;25.82;38.91;100835.66;5011555;28;20050;-76
2021/05/09 09:04:48;;;;;;;9.23;5.22;;;;;;;26.09;38.40;100832.75;5011984;28;20080;-75
2021/05/09 09:07:15;;;;;;;7.82;5.10;;;;;;;25.96;38.48;100827.06;5000642;28;20038;-75
2021/05/09 09:09:46;;;;;;;5.63;4.97;;;;;;;26.10;38.18;100834.44;5000779;28;20111;-75
2021/05/09 09:12:14;;;;;;;8.05;5.63;;;;;;;25.12;39.14;100832.28;5004716;28;20042;-75
2021/05/09 09:14:55;;;;;;;7.03;5.38;;;;;;;25.15;39.24;100834.66;5011903;28;20045;-75
2021/05/09 09:17:22;;;;;;;6.57;4.10;;;;;;;25.07;39.35;100830.91;5010668;28;20050;-76
2021/05/09 09:20:14;;;;;;;6.45;5.00;;;;;;;25.13;39.01;100828.63;5004784;28;20046;-76
2021/05/09 09:22:56;;;;;;;7.68;5.63;;;;;;;24.58;40.11;100829.66;5004330;28;20492;-76
2021/05/09 09:25:28;;;;;;;11.68;5.00;;;;;;;24.65;40.63;100832.56;5009384;28;20084;-73
2021/05/09 09:27:56;;;;;;;9.40;5.70;;;;;;;24.37;40.87;100837.13;5004060;28;20046;-77
2021/05/09 09:30:24;;;;;;;6.50;4.30;;;;;;;23.98;42.01;100829.38;5010858;28;20069;-75
2021/05/09 09:33:29;;;;;;;8.52;4.40;;;;;;;23.79;42.05;100825.81;5004752;28;20501;-76
2021/05/09 09:35:59;;;;;;;;;;;;;;;23.30;42.47;100824.31;4900313;29;20048;-75
2021/05/09 09:38:30;;;;;;;7.35;4.30;;;;;;;23.57;42.68;100830.66;4914475;29;20094;-75
2021/05/09 09:41:12;;;;;;;7.50;4.10;;;;;;;23.30;43.21;100826.16;4963787;28;20120;-75
2021/05/09 09:43:40;;;;;;;6.22;2.83;;;;;;;23.38;43.14;100829.75;5002054;28;20057;-75
2021/05/09 09:46:36;;;;;;;7.32;3.35;;;;;;;23.66;42.29;100811.19;5010092;28;20038;-76
2021/05/09 09:49:26;;;;;;;4.97;3.80;;;;;;;23.67;42.44;100813.69;4995942;28;20125;-75
2021/05/09 09:51:57;;;;;;;5.72;3.28;;;;;;;23.60;41.34;100812.59;5011197;28;20042;-75
2021/05/09 09:54:38;;;;;;;8.15;4.28;;;;;;;23.66;42.38;100805.88;5011801;28;20070;-81
2021/05/09 09:57:07;;;;;;;6.10;3.25;;;;;;;23.46;42.15;100811.25;5007042;28;20083;-75
2021/05/09 09:59:34;;;;;;;4.60;3.17;;;;;;;22.96;42.74;100814.19;5000786;28;20034;-75
2021/05/09 10:02:06;;;;;;;4.85;3.15;;;;;;;23.05;42.83;100811.66;5010325;28;20042;-75
2021/05/09 10:04:34;;;;;;;5.70;3.03;;;;;;;23.20;42.56;100811.03;5014964;28;20072;-75
2021/05/09 10:07:05;;;;;;;4.60;3.50;;;;;;;22.83;42.48;100802.97;5015873;28;20133;-75
2021/05/09 10:09:32;;;;;;;4.72;3.13;;;;;;;22.78;42.56;100805.22;5015628;28;20550;-76
2021/05/09 10:11:59;;;;;;;4.47;3.08;;;;;;;22.78;43.01;100810.53;5007693;28;20054;-76
2021/05/09 10:14:26;;;;;;;7.40;3.13;;;;;;;22.85;43.28;100805.50;5008900;28;20038;-78
2021/05/09 10:16:53;;;;;;;4.10;3.58;;;;;;;22.61;43.30;100795.31;4999488;28;20042;-75
2021/05/09 10:19:25;;;;;;;5.57;3.30;;;;;;;22.79;43.83;100795.44;5008823;28;20042;-74
2021/05/09 10:21:52;;;;;;;8.65;3.92;;;;;;;23.01;43.80;100797.81;5012314;28;20501;-80
2021/05/09 10:24:22;;;;;;;5.05;3.03;;;;;;;22.56;44.77;100800.22;5004684;28;20493;-81
2021/05/09 10:26:55;;;;;;;5.18;3.40;;;;;;;22.72;43.46;100789.84;5017913;28;20042;-78
2021/05/09 10:29:40;;;;;;;6.65;3.15;;;;;;;22.92;43.52;100791.53;5010166;28;20045;-77
2021/05/09 10:32:31;;;;;;;6.45;2.83;;;;;;;22.94;43.31;100784.25;5005007;28;20038;-77
2021/05/09 10:35:01;;;;;;;4.82;2.67;;;;;;;23.04;44.33;100778.06;4991763;28;20037;-76
2021/05/09 10:37:37;;;;;;;4.00;2.88;;;;;;;22.84;43.20;100772.75;5011786;28;20420;-76
2021/05/09 10:40:16;;;;;;;5.95;2.53;;;;;;;22.78;43.40;100783.97;5012770;28;20042;-76
2021/05/09 10:42:42;;;;;;;3.38;2.60;;;;;;;22.68;44.08;100783.13;5011393;28;20401;-76
2021/05/09 10:45:09;;;;;;;4.05;2.50;;;;;;;22.65;43.90;100784.28;5005149;28;20058;-80
2021/05/09 10:47:35;;;;;;;5.13;3.70;;;;;;;22.70;43.52;100781.19;5011195;28;20104;-77
2021/05/09 10:50:14;;;;;;;4.05;2.83;;;;;;;22.83;43.54;100770.25;4975326;28;20089;-77
2021/05/09 10:52:46;;;;;;;4.15;2.88;;;;;;;22.59;43.29;100778.69;5013494;28;20095;-79
2021/05/09 10:55:39;;;;;;;5.70;2.50;;;;;;;22.65;44.54;100778.13;5014059;28;20034;-75
2021/05/09 10:58:17;;;;;;;5.95;2.90;;;;;;;22.26;45.04;100762.19;5011979;28;20038;-75
2021/05/09 11:00:55;;;;;;;7.43;3.00;;;;;;;22.35;45.03;100765.81;5013461;28;20041;-76
2021/05/09 11:03:37;;;;;;;2.65;2.42;;;;;;;22.53;43.81;100761.50;5013224;28;20046;-76
2021/05/09 11:06:06;;;;;;;4.43;2.42;;;;;;;22.60;43.47;100759.09;5013763;28;20045;-77
2021/05/09 11:08:41;;;;;;;3.15;2.40;;;;;;;22.60;43.15;100757.28;4995495;28;20046;-76
2021/05/09 11:11:29;;;;;;;5.32;3.28;;;;;;;22.49;42.91;100754.78;5013824;28;20576;-77
2021/05/09 11:16:29;;;;;;;8.35;3.50;;;;;;;22.71;43.25;100750.97;5010866;28;20042;-75
2021/05/09 11:18:59;;;;;;;4.15;2.60;;;;;;;22.43;43.39;100750.88;5013117;28;20076;-76
2021/05/09 11:21:31;;;;;;;3.97;2.85;;;;;;;22.72;43.67;100744.66;5011162;28;20114;-77
2021/05/09 11:23:58;;;;;;;6.60;2.33;;;;;;;22.70;44.10;100744.00;5013136;28;20050;-77
2021/05/09 11:26:46;;;;;;;8.87;2.57;;;;;;;22.78;42.65;100740.59;5013580;28;20050;-78
2021/05/09 11:29:14;;;;;;;4.07;2.97;;;;;;;22.74;42.61;100740.03;5012723;28;20089;-77